Time;durP1;ratioP1;P1;durP2;ratioP2;P2;SDS_P1;SDS_P2;PMS_P1;PMS_P2;Temp;Humidity;BMP_temperature;BMP_pressure;BME280_temperature;BME280_humidity;BME280_pressure;Samples;Min_cycle;Max_cycle;Signal;HPM_P1;HPM_P2
2022/01/30 00:00:05;;;;;;;17.30;16.00;;;;;;;5.78;100.00;97970.19;2089799;28;20227;-70
2022/01/30 00:01:10;;;;;;;17.33;16.23;;;;;;;5.75;100.00;97966.25;2098126;28;20178;-71
2022/01/30 00:02:13;;;;;;;16.83;15.82;;;;;;;5.74;100.00;97962.03;2098805;28;20191;-71
2022/01/30 00:03:18;;;;;;;17.00;15.90;;;;;;;5.79;100.00;97974.38;2098562;28;20678;-70
2022/01/30 00:04:23;;;;;;;16.90;15.90;;;;;;;5.86;100.00;97964.22;2098733;28;20194;-71
2022/01/30 00:05:27;;;;;;;16.40;15.40;;;;;;;5.84;100.00;97976.97;2097858;28;20590;-70
2022/01/30 00:06:31;;;;;;;16.90;15.80;;;;;;;5.85;100.00;97960.00;2097794;28;20762;-71
2022/01/30 00:07:36;;;;;;;16.75;15.75;;;;;;;5.84;100.00;97966.38;2098681;28;20660;-70
2022/01/30 00:08:38;;;;;;;17.10;16.00;;;;;;;5.88;100.00;97957.53;2098674;28;20182;-69
2022/01/30 00:09:40;;;;;;;16.77;15.70;;;;;;;5.88;100.00;98020.28;2098406;28;20214;-70
2022/01/30 00:10:51;;;;;;;17.13;16.02;;;;;;;5.95;100.00;97973.06;2098502;28;20186;-71
2022/01/30 00:11:58;;;;;;;16.60;15.60;;;;;;;5.92;100.00;97981.63;2098579;28;20198;-71
2022/01/30 00:13:01;;;;;;;16.80;15.70;;;;;;;5.94;100.00;97950.34;2097950;28;20202;-70
2022/01/30 00:14:12;;;;;;;16.77;15.77;;;;;;;5.92;100.00;97963.09;2098858;28;20194;-70
2022/01/30 00:15:17;;;;;;;18.30;17.20;;;;;;;5.90;100.00;97971.28;2098692;28;20625;-70
2022/01/30 00:16:25;;;;;;;18.00;16.90;;;;;;;5.88;100.00;97962.06;2098698;28;20593;-70
2022/01/30 00:17:34;;;;;;;21.65;19.98;;;;;;;5.83;100.00;97962.16;2098813;28;20209;-70
2022/01/30 00:18:52;;;;;;;23.33;21.63;;;;;;;5.81;100.00;97959.78;2097397;28;20198;-70
2022/01/30 00:19:59;;;;;;;24.38;22.50;;;;;;;5.81;100.00;97982.81;2098134;28;20186;-70
2022/01/30 00:21:10;;;;;;;22.17;20.67;;;;;;;5.81;100.00;97941.25;2098352;28;20210;-70
2022/01/30 00:22:18;;;;;;;21.20;19.70;;;;;;;5.76;100.00;97970.47;2098863;28;20175;-70
2022/01/30 00:23:26;;;;;;;20.45;18.95;;;;;;;5.75;100.00;97976.84;2098871;28;20170;-69
2022/01/30 00:24:43;;;;;;;19.58;18.27;;;;;;;5.75;100.00;98010.47;2098549;28;20597;-69
2022/01/30 00:25:50;;;;;;;20.05;18.58;;;;;;;5.72;100.00;97977.41;2098730;28;20247;-70
2022/01/30 00:26:52;;;;;;;19.10;17.80;;;;;;;5.65;100.00;97969.88;2098582;28;20625;-70
2022/01/30 00:28:02;;;;;;;18.75;17.42;;;;;;;5.66;100.00;97934.38;2098751;28;20194;-70
2022/01/30 00:29:05;;;;;;;18.77;17.48;;;;;;;5.68;100.00;97982.50;2098580;28;20193;-70
2022/01/30 00:30:11;;;;;;;17.75;16.58;;;;;;;5.74;100.00;97932.16;2097842;28;20190;-70
2022/01/30 00:31:20;;;;;;;17.20;16.10;;;;;;;5.75;100.00;97942.44;2098047;28;20190;-69
2022/01/30 00:32:23;;;;;;;17.67;16.48;;;;;;;5.80;100.00;97938.91;2098745;28;20189;-70
2022/01/30 00:33:28;;;;;;;18.58;17.30;;;;;;;5.78;100.00;97959.59;2097747;28;20276;-70
2022/01/30 00:34:29;;;;;;;18.50;17.20;;;;;;;5.81;100.00;97945.75;2098185;28;20209;-70
2022/01/30 00:35:35;;;;;;;18.67;17.48;;;;;;;5.83;100.00;97952.34;2098015;28;20628;-70
2022/01/30 00:36:38;;;;;;;18.20;17.00;;;;;;;5.88;100.00;97938.22;2089793;28;20234;-70
2022/01/30 00:37:48;;;;;;;17.65;16.50;;;;;;;5.88;100.00;97946.16;2089320;28;20290;-70
2022/01/30 00:38:56;;;;;;;17.90;16.70;;;;;;;5.92;100.00;97936.63;2090415;28;20227;-70
2022/01/30 00:39:59;;;;;;;17.15;16.05;;;;;;;5.98;100.00;97934.63;2098209;28;20194;-70
2022/01/30 00:41:01;;;;;;;17.75;16.60;;;;;;;6.00;100.00;97940.44;2097183;28;20198;-70
2022/01/30 00:42:04;;;;;;;17.75;16.58;;;;;;;6.02;100.00;97919.75;2089596;28;20203;-69
2022/01/30 00:43:06;;;;;;;17.58;16.48;;;;;;;6.03;100.00;97916.81;2097947;28;20179;-69
2022/01/30 00:44:08;;;;;;;17.15;15.95;;;;;;;6.05;100.00;97925.22;2098501;28;20198;-69
2022/01/30 00:45:13;;;;;;;17.55;16.38;;;;;;;6.08;100.00;97955.63;2098478;28;20190;-69
2022/01/30 00:46:18;;;;;;;17.35;16.20;;;;;;;6.11;100.00;97902.88;2098374;28;20677;-69
2022/01/30 00:47:21;;;;;;;17.23;16.02;;;;;;;6.11;100.00;97942.59;2097415;28;20198;-69
2022/01/30 00:48:23;;;;;;;17.70;16.50;;;;;;;6.09;100.00;97918.28;2089569;28;20298;-69
2022/01/30 00:49:26;;;;;;;17.80;16.60;;;;;;;6.03;100.00;97906.22;2089522;28;20195;-69
2022/01/30 00:50:31;;;;;;;17.83;16.73;;;;;;;6.08;100.00;97939.75;2089422;28;20676;-69
2022/01/30 00:51:38;;;;;;;17.02;15.93;;;;;;;6.06;100.00;97982.41;2089543;28;20305;-69
2022/01/30 00:52:41;;;;;;;17.27;16.25;;;;;;;6.09;100.00;97987.13;2098127;28;20178;-69
2022/01/30 00:53:47;;;;;;;17.40;16.30;;;;;;;6.09;100.00;97942.13;2097789;28;20196;-69
2022/01/30 00:54:49;;;;;;;17.15;16.05;;;;;;;6.11;100.00;97921.41;2090151;28;20203;-69
2022/01/30 00:55:50;;;;;;;16.77;15.57;;;;;;;6.13;100.00;97966.91;2097855;28;20698;-69
2022/01/30 00:56:51;;;;;;;17.20;16.00;;;;;;;6.18;100.00;97984.59;2097731;28;20336;-69
2022/01/30 00:57:54;;;;;;;16.37;15.37;;;;;;;6.22;100.00;98010.19;2097367;28;20206;-70
2022/01/30 00:58:56;;;;;;;16.98;15.80;;;;;;;6.22;100.00;97962.50;2097699;28;20206;-69
2022/01/30 01:00:01;;;;;;;16.35;15.25;;;;;;;6.27;100.00;97947.63;2097860;28;20197;-69
2022/01/30 01:01:03;;;;;;;16.33;15.23;;;;;;;6.28;100.00;97926.13;2097701;28;20222;-69
2022/01/30 01:02:06;;;;;;;16.85;15.75;;;;;;;6.26;100.00;97930.16;2088990;28;20231;-69
2022/01/30 01:03:07;;;;;;;16.77;15.68;;;;;;;6.25;100.00;97937.28;2097930;28;20320;-69
2022/01/30 01:04:11;;;;;;;17.93;16.27;;;;;;;6.28;100.00;97922.69;2097776;28;20198;-69
2022/01/30 01:05:15;;;;;;;17.60;16.50;;;;;;;6.21;100.00;97954.84;2097764;28;20197;-70
2022/01/30 01:06:19;;;;;;;17.63;16.40;;;;;;;6.13;100.00;97953.69;2096680;28;20739;-70
2022/01/30 01:07:24;;;;;;;17.27;15.88;;;;;;;6.12;100.00;97903.66;2090403;28;20300;-70
2022/01/30 01:08:34;;;;;;;17.70;16.50;;;;;;;6.03;100.00;97903.56;2098820;28;20293;-70
2022/01/30 01:09:40;;;;;;;17.30;16.20;;;;;;;5.98;100.00;97908.94;2092049;28;20202;-70
2022/01/30 01:10:48;;;;;;;16.38;15.38;;;;;;;5.93;100.00;97915.13;2099150;28;20194;-70
2022/01/30 01:12:28;;;;;;;16.88;15.73;;;;;;;5.95;100.00;97947.38;2099238;28;20285;-70
2022/01/30 01:14:12;;;;;;;17.00;15.90;;;;;;;5.93;100.00;97901.13;2099195;28;20198;-71
2022/01/30 01:23:19;;;;;;;20.73;19.20;;;;;;;5.67;100.00;97895.47;2098699;28;20194;-70
2022/01/30 01:23:50;;;;;;;21.10;19.60;;;;;;;5.52;100.00;97880.66;2093531;28;20212;-70
2022/01/30 01:24:56;;;;;;;21.20;19.65;;;;;;;5.52;100.00;97901.81;2099502;28;20313;-70
2022/01/30 01:26:00;;;;;;;22.35;20.75;;;;;;;5.58;100.00;97900.66;2098568;28;20210;-70
2022/01/30 01:27:04;;;;;;;20.50;19.00;;;;;;;5.61;100.00;97878.91;2091244;28;20195;-70
2022/01/30 01:28:09;;;;;;;19.35;18.00;;;;;;;5.59;100.00;97933.97;2090815;28;20681;-70
2022/01/30 01:29:15;;;;;;;20.50;18.92;;;;;;;5.68;100.00;97889.88;2090712;28;20277;-70
2022/01/30 01:30:18;;;;;;;19.27;17.88;;;;;;;5.73;100.00;97848.53;2091542;28;20206;-70
2022/01/30 01:31:22;;;;;;;19.17;17.88;;;;;;;5.73;100.00;97885.56;2090719;28;20653;-70
2022/01/30 01:32:26;;;;;;;18.50;17.30;;;;;;;5.77;100.00;97865.41;2099412;28;20229;-70
2022/01/30 01:33:37;;;;;;;18.88;17.58;;;;;;;5.81;100.00;97869.78;2099088;28;20194;-69
2022/01/30 01:34:41;;;;;;;19.00;17.60;;;;;;;5.80;100.00;97907.16;2099509;28;20182;-70
2022/01/30 01:35:46;;;;;;;18.02;16.77;;;;;;;5.82;100.00;97908.44;2099650;28;20601;-69
2022/01/30 01:36:53;;;;;;;18.25;17.05;;;;;;;5.77;100.00;97883.91;2099359;28;20221;-70
2022/01/30 01:37:59;;;;;;;18.48;17.23;;;;;;;5.73;100.00;97880.28;2099621;28;20214;-69
2022/01/30 01:39:04;;;;;;;19.08;17.88;;;;;;;5.72;100.00;97889.28;2098550;28;20198;-70
2022/01/30 01:40:07;;;;;;;18.58;17.30;;;;;;;5.69;100.00;97895.97;2091269;28;20254;-70
2022/01/30 01:41:11;;;;;;;19.08;17.77;;;;;;;5.67;100.00;97911.34;2090691;28;20214;-70
2022/01/30 01:42:16;;;;;;;22.27;20.60;;;;;;;5.58;100.00;97927.13;2090603;28;20225;-70
2022/01/30 01:43:18;;;;;;;23.17;21.58;;;;;;;5.43;100.00;97902.78;2090964;28;20207;-70
2022/01/30 01:44:32;;;;;;;22.83;21.20;;;;;;;5.26;100.00;97919.97;2099035;28;20245;-71
2022/01/30 01:45:40;;;;;;;24.92;23.23;;;;;;;5.15;100.00;97910.63;2098611;28;20224;-71
2022/01/30 01:46:43;;;;;;;24.98;23.17;;;;;;;5.04;100.00;97883.56;2099133;28;20190;-71
2022/01/30 01:47:47;;;;;;;23.60;21.90;;;;;;;4.97;100.00;97893.72;2098980;28;20672;-71
2022/01/30 01:48:55;;;;;;;24.45;22.55;;;;;;;4.86;100.00;97878.28;2099319;28;20676;-71
2022/01/30 01:50:00;;;;;;;24.25;22.48;;;;;;;4.81;100.00;97927.50;2098937;28;20206;-71
2022/01/30 01:51:14;;;;;;;25.52;23.70;;;;;;;4.80;100.00;97949.72;2098582;28;20197;-71
2022/01/30 01:52:24;;;;;;;23.45;21.73;;;;;;;4.77;100.00;97889.50;2098106;28;20687;-70
2022/01/30 01:53:28;;;;;;;24.08;22.38;;;;;;;4.73;100.00;97936.09;2091877;28;20627;-70
2022/01/30 01:54:32;;;;;;;25.38;23.48;;;;;;;4.70;100.00;97865.34;2090560;28;20209;-70
2022/01/30 01:55:35;;;;;;;23.10;21.45;;;;;;;4.68;100.00;97906.28;2090828;28;20281;-70
2022/01/30 01:56:41;;;;;;;23.77;21.98;;;;;;;4.62;100.00;97899.53;2098791;28;20576;-70
2022/01/30 01:57:52;;;;;;;23.63;22.00;;;;;;;4.61;100.00;97900.59;2092207;28;20256;-70
2022/01/30 01:59:18;;;;;;;24.25;22.45;;;;;;;4.63;100.00;97906.38;2093747;28;20202;-70
2022/01/30 02:00:40;;;;;;;24.00;22.27;;;;;;;4.66;100.00;97934.84;2099239;28;20175;-70
2022/01/30 02:01:50;;;;;;;24.48;22.67;;;;;;;4.69;100.00;97915.78;2098317;28;20218;-70
2022/01/30 02:02:54;;;;;;;24.35;22.65;;;;;;;4.70;100.00;97904.97;2091412;28;20260;-70
2022/01/30 02:03:59;;;;;;;23.70;21.90;;;;;;;4.72;100.00;97910.72;2090580;28;20201;-69
2022/01/30 02:05:03;;;;;;;24.63;22.83;;;;;;;4.72;100.00;97926.59;2090248;28;20237;-69
2022/01/30 02:06:08;;;;;;;23.65;21.92;;;;;;;4.79;100.00;97944.72;2090045;28;20252;-69
2022/01/30 02:08:35;;;;;;;23.80;22.20;;;;;;;4.78;100.00;97919.38;2098795;28;20197;-70
2022/01/30 02:09:37;;;;;;;23.23;21.63;;;;;;;4.81;100.00;97945.22;2099474;28;20221;-69
2022/01/30 02:10:51;;;;;;;24.27;22.33;;;;;;;4.85;100.00;97924.28;2099426;28;20190;-70
2022/01/30 02:11:56;;;;;;;26.10;24.05;;;;;;;4.83;100.00;97927.22;2098002;28;20198;-69
2022/01/30 02:13:15;;;;;;;26.90;24.80;;;;;;;4.79;100.00;97992.28;2099077;28;20195;-70
2022/01/30 02:14:30;;;;;;;25.25;23.15;;;;;;;4.81;100.00;97945.22;2099509;28;20171;-69
2022/01/30 02:23:55;;;;;;;24.10;22.05;;;;;;;4.89;100.00;97941.16;2098770;28;20226;-69
2022/01/30 02:24:04;;;;;;;21.55;19.95;;;;;;;4.74;100.00;97919.16;2098191;28;20226;-69
2022/01/30 02:25:32;;;;;;;20.85;19.23;;;;;;;4.70;100.00;97941.94;2092948;28;20649;-69
2022/01/30 02:26:41;;;;;;;21.20;19.27;;;;;;;4.68;100.00;97935.34;2093371;28;20221;-69
2022/01/30 02:27:46;;;;;;;22.48;20.27;;;;;;;4.62;100.00;97939.16;2098718;28;20182;-69
2022/01/30 02:28:52;;;;;;;22.02;19.73;;;;;;;4.65;100.00;97943.84;2090798;28;20210;-69
2022/01/30 02:30:01;;;;;;;20.60;18.80;;;;;;;4.60;100.00;97946.56;2098534;28;20289;-70
2022/01/30 02:31:07;;;;;;;20.58;18.88;;;;;;;4.58;100.00;97959.25;2091270;28;20273;-69
2022/01/30 02:32:12;;;;;;;19.73;18.17;;;;;;;4.56;100.00;97935.00;2090812;28;20642;-69
2022/01/30 02:33:14;;;;;;;21.42;19.60;;;;;;;4.52;100.00;97946.13;2090582;28;20206;-69
2022/01/30 02:34:17;;;;;;;20.27;18.77;;;;;;;4.45;100.00;97972.09;2098582;28;20244;-69
2022/01/30 02:35:19;;;;;;;20.40;18.85;;;;;;;4.44;100.00;97940.69;2098319;28;20325;-69
2022/01/30 02:36:25;;;;;;;20.50;18.80;;;;;;;4.46;100.00;97944.63;2098411;28;20338;-69
2022/01/30 02:37:29;;;;;;;20.58;18.75;;;;;;;4.46;100.00;97934.06;2098187;28;20704;-69
2022/01/30 02:38:34;;;;;;;20.45;18.75;;;;;;;4.44;100.00;97938.06;2098878;28;20182;-69
2022/01/30 02:39:38;;;;;;;20.70;18.70;;;;;;;4.42;100.00;97959.44;2099211;28;20544;-68
2022/01/30 02:40:42;;;;;;;19.83;17.90;;;;;;;4.45;100.00;97942.28;2098402;28;20206;-68
2022/01/30 02:41:45;;;;;;;20.58;18.60;;;;;;;4.45;100.00;97932.50;2090547;28;20636;-68
2022/01/30 02:42:50;;;;;;;19.73;17.90;;;;;;;4.48;100.00;97952.25;2090506;28;20234;-68
2022/01/30 02:44:08;;;;;;;19.30;17.63;;;;;;;4.48;100.00;97992.66;2090778;28;20685;-68
2022/01/30 02:45:14;;;;;;;18.40;16.83;;;;;;;4.53;100.00;97928.44;2098727;28;20194;-68
2022/01/30 02:46:25;;;;;;;19.35;17.65;;;;;;;4.54;100.00;97922.06;2097817;28;20209;-68
2022/01/30 02:47:41;;;;;;;19.40;17.80;;;;;;;4.59;100.00;97942.34;2091337;28;20681;-68
2022/01/30 02:48:51;;;;;;;20.10;18.15;;;;;;;4.58;100.00;97932.84;2091736;28;20293;-68
2022/01/30 02:50:18;;;;;;;18.90;16.95;;;;;;;4.59;100.00;97935.19;2091500;28;20199;-68
2022/01/30 02:51:24;;;;;;;19.33;17.52;;;;;;;4.49;100.00;97953.81;2093056;28;20785;-68
2022/01/30 02:52:30;;;;;;;18.67;16.98;;;;;;;4.51;100.00;97941.13;2090308;28;20202;-68
2022/01/30 02:53:39;;;;;;;18.08;16.48;;;;;;;4.51;100.00;97973.59;2090432;28;20556;-68
2022/01/30 02:54:42;;;;;;;19.25;17.35;;;;;;;4.57;100.00;97945.28;2090915;28;20210;-68
2022/01/30 02:55:45;;;;;;;18.52;16.73;;;;;;;4.55;100.00;97934.22;2098737;28;20194;-68
2022/01/30 02:56:48;;;;;;;18.38;16.80;;;;;;;4.58;100.00;97924.94;2098373;28;20201;-68
2022/01/30 02:57:56;;;;;;;18.23;16.50;;;;;;;4.59;100.00;97939.69;2089490;28;20199;-68
2022/01/30 02:59:00;;;;;;;17.98;16.40;;;;;;;4.54;100.00;97936.06;2090716;28;20697;-69
2022/01/30 03:00:07;;;;;;;17.60;16.10;;;;;;;4.57;100.00;97932.06;2098365;28;20190;-69
2022/01/30 03:01:12;;;;;;;17.92;16.17;;;;;;;4.59;100.00;97924.63;2090284;28;20695;-68
2022/01/30 03:02:15;;;;;;;18.73;16.75;;;;;;;4.62;100.00;97934.66;2090436;28;20187;-68
2022/01/30 03:03:16;;;;;;;18.23;16.60;;;;;;;4.71;100.00;97918.94;2098445;28;20198;-68
2022/01/30 03:04:20;;;;;;;17.70;16.17;;;;;;;4.71;100.00;97937.44;2099028;28;20182;-68
2022/01/30 03:05:24;;;;;;;17.52;15.95;;;;;;;4.74;100.00;97942.16;2098953;28;20236;-68
2022/01/30 03:06:30;;;;;;;17.65;16.17;;;;;;;4.79;100.00;97979.09;2097857;28;20221;-68
2022/01/30 03:07:35;;;;;;;17.50;15.95;;;;;;;4.82;100.00;97950.22;2090273;28;20198;-69
2022/01/30 03:08:39;;;;;;;17.02;15.65;;;;;;;4.82;100.00;97946.78;2090243;28;20237;-68
2022/01/30 03:09:42;;;;;;;18.50;16.70;;;;;;;4.83;100.00;97961.56;2098294;28;20190;-69
2022/01/30 03:10:47;;;;;;;17.42;16.02;;;;;;;4.87;100.00;97967.88;2090314;28;20195;-69
2022/01/30 03:11:53;;;;;;;17.15;15.45;;;;;;;4.83;100.00;97990.66;2090424;28;20244;-68
2022/01/30 03:12:57;;;;;;;19.73;16.20;;;;;;;4.84;100.00;97989.56;2090187;28;20207;-69
2022/01/30 03:14:01;;;;;;;17.45;16.05;;;;;;;4.87;100.00;97953.88;2097773;28;20206;-68
2022/01/30 03:15:06;;;;;;;18.40;16.67;;;;;;;4.85;100.00;97963.94;2098205;28;20722;-68
2022/01/30 03:16:07;;;;;;;18.45;16.65;;;;;;;4.80;100.00;97964.78;2097777;28;20225;-68
2022/01/30 03:17:09;;;;;;;18.10;16.40;;;;;;;4.79;100.00;97928.88;2098313;28;20277;-68
2022/01/30 03:18:12;;;;;;;17.83;16.10;;;;;;;4.74;100.00;97950.06;2098881;28;20186;-68
2022/01/30 03:19:17;;;;;;;18.13;16.27;;;;;;;4.71;100.00;97954.09;2097960;28;20294;-68
2022/01/30 03:20:18;;;;;;;18.80;17.00;;;;;;;4.71;100.00;97916.31;2098342;28;20680;-68
2022/01/30 03:21:25;;;;;;;18.70;16.75;;;;;;;4.73;100.00;97922.09;2098331;28;20317;-68
2022/01/30 03:22:26;;;;;;;18.77;16.95;;;;;;;4.73;100.00;97922.09;2098947;28;20194;-68
2022/01/30 03:23:31;;;;;;;19.67;17.27;;;;;;;4.69;100.00;97927.16;2098277;28;20726;-69
2022/01/30 03:24:37;;;;;;;18.40;16.60;;;;;;;4.69;100.00;97926.34;2098253;28;20195;-68
2022/01/30 03:25:58;;;;;;;19.58;17.48;;;;;;;4.66;100.00;97933.00;2097760;28;20244;-69
2022/01/30 03:27:18;;;;;;;18.95;17.02;;;;;;;4.64;100.00;97918.50;2092845;28;20218;-69
2022/01/30 03:28:27;;;;;;;18.88;17.30;;;;;;;4.64;100.00;97905.31;2090678;28;20238;-69
2022/01/30 03:29:40;;;;;;;19.00;17.27;;;;;;;4.68;100.00;97922.94;2091149;28;20572;-68
2022/01/30 03:30:47;;;;;;;17.92;16.20;;;;;;;4.68;100.00;97928.22;2089925;28;20198;-68
2022/01/30 03:31:55;;;;;;;17.38;15.68;;;;;;;4.71;100.00;97903.09;2091003;28;20290;-68
2022/01/30 03:32:59;;;;;;;17.77;16.15;;;;;;;4.66;100.00;97938.28;2097677;28;20289;-69
2022/01/30 03:34:02;;;;;;;23.23;16.10;;;;;;;4.73;100.00;97930.78;2090160;28;20740;-69
2022/01/30 03:35:16;;;;;;;18.15;16.45;;;;;;;4.76;100.00;97930.22;2090857;28;20620;-69
2022/01/30 03:36:19;;;;;;;18.35;16.35;;;;;;;4.77;100.00;97912.50;2097210;28;20279;-69
2022/01/30 03:37:21;;;;;;;18.60;16.77;;;;;;;4.74;100.00;97913.09;2090013;28;20191;-69
2022/01/30 03:38:26;;;;;;;18.13;16.55;;;;;;;4.69;100.00;97944.84;2090133;28;20236;-69
2022/01/30 03:39:30;;;;;;;20.05;16.85;;;;;;;4.78;100.00;97945.81;2089671;28;20207;-69
2022/01/30 03:40:35;;;;;;;18.33;16.73;;;;;;;4.89;100.00;97930.59;2090218;28;20206;-69
2022/01/30 03:41:38;;;;;;;20.23;16.95;;;;;;;4.90;100.00;97925.00;2090592;28;20202;-69
2022/01/30 03:42:47;;;;;;;19.17;17.30;;;;;;;4.87;100.00;97933.53;2090767;28;20564;-69
2022/01/30 03:43:50;;;;;;;19.42;17.63;;;;;;;4.83;100.00;97916.66;2090822;28;20218;-68
2022/01/30 03:44:54;;;;;;;19.80;17.83;;;;;;;4.87;100.00;97936.16;2089903;28;20199;-68
2022/01/30 03:45:56;;;;;;;18.10;16.23;;;;;;;4.87;100.00;97928.25;2089664;28;20602;-69
2022/01/30 03:47:01;;;;;;;19.77;17.10;;;;;;;4.84;100.00;97931.44;2090046;28;20245;-69
2022/01/30 03:48:04;;;;;;;23.23;16.92;;;;;;;4.83;100.00;97943.88;2090257;28;20211;-69
2022/01/30 03:49:37;;;;;;;19.25;17.65;;;;;;;4.89;100.00;97918.16;2094444;28;20224;-69
2022/01/30 03:50:39;;;;;;;20.35;18.23;;;;;;;4.87;100.00;97908.97;2098215;28;20220;-69
2022/01/30 03:51:42;;;;;;;20.73;17.15;;;;;;;4.89;100.00;97963.09;2095681;28;20230;-69
2022/01/30 03:53:08;;;;;;;18.08;16.58;;;;;;;4.89;100.00;97930.59;2101578;28;20655;-69
2022/01/30 03:54:11;;;;;;;19.40;17.48;;;;;;;4.91;100.00;97923.94;2106782;28;20289;-68
2022/01/30 03:55:18;;;;;;;18.73;16.75;;;;;;;4.89;100.00;97910.22;2106405;28;20204;-69
2022/01/30 03:56:21;;;;;;;19.17;17.50;;;;;;;4.90;100.00;97906.50;2098335;28;20206;-69
2022/01/30 03:57:23;;;;;;;19.52;17.55;;;;;;;4.83;100.00;97927.22;2106261;28;20686;-69
2022/01/30 03:58:26;;;;;;;20.42;18.30;;;;;;;4.85;100.00;97951.50;2097686;28;20202;-69
2022/01/30 03:59:30;;;;;;;18.73;16.90;;;;;;;4.87;100.00;97922.16;2097779;28;20206;-69
2022/01/30 04:00:36;;;;;;;18.63;17.05;;;;;;;4.91;100.00;97923.94;2106003;28;20204;-69
2022/01/30 04:01:44;;;;;;;17.70;16.15;;;;;;;4.95;100.00;97954.03;2098945;28;20219;-68
2022/01/30 04:02:46;;;;;;;18.52;16.80;;;;;;;4.97;100.00;97937.88;2098184;28;20202;-69
2022/01/30 04:03:50;;;;;;;19.35;16.70;;;;;;;4.99;100.00;97919.88;2098214;28;20202;-69
2022/01/30 04:04:52;;;;;;;19.83;17.98;;;;;;;5.00;100.00;97911.66;2106687;28;20197;-69
2022/01/30 04:05:56;;;;;;;17.95;16.30;;;;;;;4.97;100.00;97941.31;2105573;28;20202;-69
2022/01/30 04:07:01;;;;;;;20.23;17.52;;;;;;;5.00;100.00;97932.78;2098178;28;20198;-68
2022/01/30 04:08:24;;;;;;;18.23;16.25;;;;;;;5.04;100.00;97962.88;2098816;28;20170;-69
2022/01/30 04:09:38;;;;;;;18.25;16.70;;;;;;;5.14;100.00;97955.88;2097916;28;20201;-68
2022/01/30 04:11:13;;;;;;;18.70;16.88;;;;;;;5.16;100.00;97922.78;2073110;28;20219;-69
2022/01/30 04:12:31;;;;;;;22.23;16.80;;;;;;;5.20;100.00;97941.47;2071796;28;20211;-69
2022/01/30 04:13:44;;;;;;;18.50;16.50;;;;;;;5.18;100.00;97909.25;2095869;28;20229;-69
2022/01/30 04:15:13;;;;;;;20.45;16.45;;;;;;;5.13;100.00;97912.78;2093635;28;20591;-69
2022/01/30 04:16:38;;;;;;;18.63;16.75;;;;;;;5.09;100.00;97909.91;2092681;28;20281;-69
2022/01/30 04:17:46;;;;;;;19.30;16.67;;;;;;;5.09;100.00;97907.28;2098191;28;20171;-69
2022/01/30 04:19:10;;;;;;;18.13;16.52;;;;;;;5.17;99.22;97918.28;2098034;28;20652;-69
2022/01/30 04:20:35;;;;;;;18.40;16.60;;;;;;;5.21;97.06;97928.00;2098464;28;20175;-69
2022/01/30 04:22:05;;;;;;;18.35;16.85;;;;;;;5.21;96.25;97937.75;2103601;28;20217;-69
2022/01/30 04:23:26;;;;;;;18.40;16.63;;;;;;;5.25;94.63;97944.06;2106998;28;20214;-69
2022/01/30 04:24:49;;;;;;;21.33;17.55;;;;;;;5.27;94.48;97934.75;2106859;28;20193;-68
2022/01/30 04:26:20;;;;;;;19.75;17.85;;;;;;;5.26;95.29;97914.69;2068290;28;20640;-68
2022/01/30 04:27:48;;;;;;;18.45;16.95;;;;;;;5.27;93.62;97931.31;2106194;28;20300;-69
2022/01/30 04:29:13;;;;;;;19.52;17.65;;;;;;;5.30;95.54;97899.00;2106815;28;20178;-69
2022/01/30 04:30:26;;;;;;;18.55;16.92;;;;;;;5.30;96.30;97912.22;2106204;28;20320;-69
2022/01/30 04:31:58;;;;;;;19.08;17.60;;;;;;;5.19;100.00;97916.91;2101906;28;20212;-71
2022/01/30 04:33:09;;;;;;;19.27;17.63;;;;;;;5.07;100.00;97925.28;2099035;28;20719;-70
2022/01/30 04:34:38;;;;;;;18.75;17.08;;;;;;;4.94;100.00;97888.22;2105803;28;20197;-70
2022/01/30 04:35:55;;;;;;;23.27;18.17;;;;;;;4.84;100.00;97902.38;2106953;28;20656;-71
2022/01/30 04:37:23;;;;;;;18.52;16.90;;;;;;;4.73;100.00;97880.59;2105158;28;20221;-70
2022/01/30 04:38:55;;;;;;;23.60;18.17;;;;;;;4.65;100.00;97965.78;2101015;28;20594;-69
2022/01/30 04:40:41;;;;;;;27.92;18.48;;;;;;;4.52;100.00;97943.50;2107009;28;20182;-69
2022/01/30 04:42:20;;;;;;;23.13;21.05;;;;;;;4.34;100.00;97904.63;2107120;28;20307;-70
2022/01/30 04:52:50;;;;;;;25.98;23.88;;;;;;;2.72;100.00;98001.75;2107399;28;20252;-70
2022/01/30 04:57:46;;;;;;;29.55;26.00;;;;;;;1.75;100.00;98053.81;2099227;28;20189;-71
2022/01/30 04:59:17;;;;;;;28.67;25.60;;;;;;;1.68;100.00;97898.97;2107913;28;20197;-71
2022/01/30 05:00:47;;;;;;;29.58;26.45;;;;;;;1.69;100.00;97893.44;2107733;28;20178;-71
2022/01/30 05:02:07;;;;;;;28.65;25.60;;;;;;;1.72;100.00;97888.69;2104418;28;20196;-72
2022/01/30 05:03:35;;;;;;;27.38;24.88;;;;;;;1.71;100.00;97914.19;2101442;28;20245;-71
2022/01/30 05:05:23;;;;;;;27.98;25.25;;;;;;;1.63;100.00;97954.94;2103519;28;20205;-71
2022/01/30 05:07:27;;;;;;;28.02;25.00;;;;;;;1.69;100.00;97884.75;2105419;28;20229;-71
2022/01/30 05:08:46;;;;;;;29.58;26.70;;;;;;;1.70;100.00;97855.56;2075897;28;20741;-71
2022/01/30 05:09:59;;;;;;;27.85;24.95;;;;;;;1.76;100.00;97874.75;2107628;28;20202;-71
2022/01/30 05:11:11;;;;;;;27.70;24.77;;;;;;;1.87;100.00;97870.25;2100622;28;20603;-71
2022/01/30 05:12:37;;;;;;;32.30;25.75;;;;;;;1.86;100.00;97906.28;2101630;28;20720;-71
2022/01/30 05:14:00;;;;;;;28.98;25.23;;;;;;;1.94;100.00;97899.69;2078514;28;20196;-71
2022/01/30 05:15:23;;;;;;;28.48;25.45;;;;;;;2.03;100.00;97878.88;2107215;28;20209;-70
2022/01/30 05:16:47;;;;;;;28.98;26.05;;;;;;;2.10;100.00;97892.53;2093720;28;20546;-70
2022/01/30 05:18:07;;;;;;;28.02;24.88;;;;;;;2.21;100.00;97891.41;2107520;28;20225;-71
2022/01/30 05:19:41;;;;;;;26.52;23.80;;;;;;;2.25;100.00;97874.81;2099040;28;20185;-70
2022/01/30 05:20:49;;;;;;;26.13;23.52;;;;;;;2.32;100.00;97886.88;2107491;28;20288;-71
2022/01/30 05:22:13;;;;;;;26.00;23.30;;;;;;;2.36;100.00;97877.41;2098631;28;20222;-70
2022/01/30 05:23:30;;;;;;;25.17;22.63;;;;;;;2.35;100.00;97881.09;2099594;28;20289;-71
2022/01/30 05:24:46;;;;;;;24.98;21.38;;;;;;;2.42;100.00;97865.78;2092844;28;20199;-70
2022/01/30 05:25:59;;;;;;;32.13;23.50;;;;;;;2.44;100.00;97867.09;2092332;28;20195;-70
2022/01/30 05:27:02;;;;;;;26.73;22.88;;;;;;;2.44;100.00;97879.47;2091157;28;20229;-70
2022/01/30 05:28:22;;;;;;;31.02;25.80;;;;;;;2.51;100.00;97864.13;2099311;28;20224;-70
2022/01/30 05:29:51;;;;;;;27.95;23.42;;;;;;;2.54;100.00;97850.44;2098681;28;20217;-70
2022/01/30 05:31:17;;;;;;;27.13;23.23;;;;;;;2.57;100.00;97857.78;2099376;28;20590;-70
2022/01/30 05:32:46;;;;;;;28.02;23.55;;;;;;;2.58;100.00;97840.94;2088728;28;20298;-71
2022/01/30 05:34:13;;;;;;;27.48;22.45;;;;;;;2.58;100.00;97854.09;2092135;28;20191;-71
2022/01/30 05:35:28;;;;;;;26.88;24.00;;;;;;;2.60;100.00;97841.44;2099049;28;20236;-71
2022/01/30 05:36:59;;;;;;;30.42;24.67;;;;;;;2.59;100.00;97826.72;2098797;28;20210;-71
2022/01/30 05:38:28;;;;;;;29.10;23.00;;;;;;;2.64;100.00;97818.78;2079670;28;20257;-71
2022/01/30 05:39:50;;;;;;;34.63;31.50;;;;;;;2.64;100.00;97831.94;2099954;28;20174;-70
2022/01/30 05:41:13;;;;;;;35.00;31.92;;;;;;;2.67;100.00;97810.31;2099878;28;20640;-70
2022/01/30 05:42:28;;;;;;;39.15;35.70;;;;;;;2.67;100.00;97844.56;2099029;28;20640;-71
2022/01/30 05:44:14;;;;;;;35.00;31.92;;;;;;;2.74;100.00;97829.22;2065927;28;20200;-70
2022/01/30 05:45:52;;;;;;;31.40;28.30;;;;;;;2.76;100.00;97824.47;2107396;28;20239;-70
2022/01/30 05:46:59;;;;;;;32.63;29.33;;;;;;;2.90;100.00;97793.03;2105578;28;20256;-70
2022/01/30 05:48:16;;;;;;;33.50;28.90;;;;;;;2.86;100.00;97767.50;2098884;28;20258;-70
2022/01/30 05:49:50;;;;;;;32.22;29.33;;;;;;;2.84;100.00;97789.66;2086193;28;20714;-70
2022/01/30 05:51:16;;;;;;;25.40;22.98;;;;;;;2.84;100.00;97784.38;2101513;28;20239;-70
2022/01/30 05:52:24;;;;;;;23.60;21.25;;;;;;;2.83;100.00;97767.00;2107287;28;20288;-70
2022/01/30 05:53:38;;;;;;;24.67;21.77;;;;;;;2.87;100.00;97751.44;2099626;28;20190;-70